createdAt,value
2019-02-12T00:00:57.927Z,102652.75
2019-02-12T00:02:02.446Z,102658.00
2019-02-12T00:03:07.397Z,102662.01
2019-02-12T00:04:12.330Z,102663.94
2019-02-12T00:05:17.277Z,102677.94
2019-02-12T00:06:22.477Z,102675.73
2019-02-12T00:07:26.908Z,102683.23
2019-02-12T00:08:32.096Z,102680.48
2019-02-12T00:09:36.729Z,102684.30
2019-02-12T00:10:41.747Z,102686.48
2019-02-12T00:11:46.973Z,102688.03
2019-02-12T00:12:52.189Z,102691.80
2019-02-12T00:13:57.685Z,102695.30
2019-02-12T00:15:03.157Z,102693.45
2019-02-12T00:16:08.670Z,102702.69
2019-02-12T00:17:13.796Z,102701.83
2019-02-12T00:18:19.027Z,102706.38
2019-02-12T00:19:23.890Z,102711.94
2019-02-12T00:20:29.383Z,102710.22
2019-02-12T00:21:34.361Z,102714.68
2019-02-12T00:22:39.875Z,102712.90
2019-02-12T00:23:45.397Z,102725.41
2019-02-12T00:24:50.871Z,102727.31
2019-02-12T00:25:55.558Z,102730.14
2019-02-12T00:27:00.411Z,102732.45
2019-02-12T00:28:05.063Z,102735.50
2019-02-12T00:29:10.006Z,102737.77
2019-02-12T00:30:14.705Z,102731.25
2019-02-12T00:31:19.637Z,102743.30
2019-02-12T00:32:24.429Z,102740.72
2019-02-12T00:33:29.575Z,102735.22
2019-02-12T00:34:34.484Z,102735.11
2019-02-12T00:35:39.712Z,102732.28
2019-02-12T00:36:44.359Z,102735.46
2019-02-12T00:37:49.790Z,102733.41
2019-02-12T00:38:54.967Z,102733.34
2019-02-12T00:40:00.277Z,102730.81
2019-02-12T00:41:05.217Z,102733.67
2019-02-12T00:42:10.174Z,102729.81
2019-02-12T00:43:15.215Z,102721.37
2019-02-12T00:44:20.283Z,102730.05
2019-02-12T00:45:24.924Z,102730.23
2019-02-12T00:46:30.147Z,102730.22
2019-02-12T00:47:35.752Z,102725.13
2019-02-12T00:48:40.855Z,102723.90
2019-02-12T00:49:46.208Z,102726.30
2019-02-12T00:50:51.658Z,102729.94
2019-02-12T00:51:56.881Z,102734.84
2019-02-12T00:53:02.309Z,102733.68
2019-02-12T00:54:06.998Z,102738.95
2019-02-12T00:55:12.047Z,102735.92
2019-02-12T00:56:17.263Z,102738.37
2019-02-12T00:57:22.483Z,102736.75
2019-02-12T00:58:27.363Z,102741.55
2019-02-12T00:59:32.337Z,102735.78
2019-02-12T01:00:37.303Z,102742.42
2019-02-12T01:01:42.059Z,102740.17
2019-02-12T01:02:46.980Z,102749.58
2019-02-12T01:03:52.893Z,102747.45
2019-02-12T01:04:58.430Z,102740.38
2019-02-12T01:06:03.254Z,102741.94
2019-02-12T01:07:09.014Z,102737.28
2019-02-12T01:08:13.746Z,102743.77
2019-02-12T01:09:18.351Z,102747.58
2019-02-12T01:10:23.301Z,102745.30
2019-02-12T01:11:28.274Z,102746.90
2019-02-12T01:12:32.749Z,102748.30
2019-02-12T01:13:37.985Z,102751.06
2019-02-12T01:14:42.989Z,102748.50
2019-02-12T01:15:48.090Z,102749.31
2019-02-12T01:16:53.277Z,102750.44
2019-02-12T01:17:59.865Z,102753.08
2019-02-12T01:19:04.746Z,102749.30
2019-02-12T01:20:11.599Z,102748.33
2019-02-12T01:21:16.819Z,102747.86
2019-02-12T01:22:21.511Z,102757.33
2019-02-12T01:23:26.776Z,102755.19
2019-02-12T01:24:32.350Z,102753.72
2019-02-12T01:25:37.057Z,102755.16
2019-02-12T01:26:42.362Z,102757.59
2019-02-12T01:27:47.324Z,102765.58
2019-02-12T01:28:52.243Z,102754.61
2019-02-12T01:29:57.413Z,102751.80
2019-02-12T01:31:02.415Z,102757.12
2019-02-12T01:32:07.760Z,102748.64
2019-02-12T01:33:12.716Z,102746.16
2019-02-12T01:34:17.358Z,102749.55
2019-02-12T01:35:22.894Z,102744.02
2019-02-12T01:36:27.836Z,102743.17
2019-02-12T01:37:32.418Z,102747.86
2019-02-12T01:38:37.172Z,102747.52
2019-02-12T01:39:42.409Z,102752.50
2019-02-12T01:40:47.351Z,102743.89
2019-02-12T01:41:52.307Z,102755.48
2019-02-12T01:42:57.524Z,102752.70
2019-02-12T01:44:02.133Z,102760.98
2019-02-12T01:45:07.554Z,102756.67
2019-02-12T01:46:12.430Z,102759.42
2019-02-12T01:47:17.381Z,102761.13
2019-02-12T01:48:22.413Z,102763.47
2019-02-12T01:49:27.554Z,102763.06
2019-02-12T01:50:32.710Z,102763.34
2019-02-12T01:51:37.823Z,102761.87
2019-02-12T01:52:42.560Z,102756.95
2019-02-12T01:53:47.638Z,102755.29
2019-02-12T01:54:52.945Z,102756.78
2019-02-12T01:55:57.892Z,102753.49
2019-02-12T01:57:02.497Z,102751.97
2019-02-12T01:58:07.489Z,102748.47
2019-02-12T01:59:12.327Z,102757.26
2019-02-12T02:00:17.511Z,102757.59
2019-02-12T02:01:22.880Z,102752.11
2019-02-12T02:02:27.355Z,102757.80
2019-02-12T02:03:32.579Z,102757.73
2019-02-12T02:04:37.992Z,102750.95
2019-02-12T02:05:43.093Z,102750.57
2019-02-12T02:06:48.586Z,102753.48
2019-02-12T02:07:54.130Z,102745.85
2019-02-12T02:08:59.624Z,102750.09
2019-02-12T02:10:04.983Z,102751.17
2019-02-12T02:11:10.215Z,102751.48
2019-02-12T02:12:15.447Z,102753.48
2019-02-12T02:13:20.664Z,102756.73
2019-02-12T02:14:25.625Z,102756.00
2019-02-12T02:15:30.598Z,102752.71
2019-02-12T02:16:35.765Z,102761.23
2019-02-12T02:17:40.973Z,102762.35
2019-02-12T02:18:46.256Z,102765.10
2019-02-12T02:19:50.971Z,102766.39
2019-02-12T02:20:55.931Z,102768.19
2019-02-12T02:22:01.075Z,102768.59
2019-02-12T02:23:06.321Z,102765.45
2019-02-12T02:24:11.297Z,102763.16
2019-02-12T02:25:16.122Z,102760.19
2019-02-12T02:26:21.358Z,102754.30
2019-02-12T02:27:26.605Z,102757.05
2019-02-12T02:28:31.842Z,102760.20
2019-02-12T02:29:37.353Z,102758.02
2019-02-12T02:30:42.516Z,102758.82
2019-02-12T02:31:48.027Z,102761.81
2019-02-12T02:32:53.496Z,102762.15
2019-02-12T02:33:58.744Z,102760.36
2019-02-12T02:35:03.715Z,102758.34
2019-02-12T02:36:08.599Z,102764.00
2019-02-12T02:37:13.862Z,102758.95
2019-02-12T02:38:18.822Z,102758.03
2019-02-12T02:39:23.987Z,102758.44
2019-02-12T02:40:29.500Z,102762.22
2019-02-12T02:41:34.157Z,102763.08
2019-02-12T02:42:39.391Z,102758.75
2019-02-12T02:43:44.807Z,102766.81
2019-02-12T02:44:50.354Z,102766.56
2019-02-12T02:45:55.564Z,102767.78
2019-02-12T02:47:00.722Z,102769.72
2019-02-12T02:48:05.471Z,102763.50
2019-02-12T02:49:10.073Z,102763.66
2019-02-12T02:50:15.301Z,102766.47
2019-02-12T02:51:20.360Z,102767.14
2019-02-12T02:52:25.672Z,102771.63
2019-02-12T02:53:30.943Z,102773.17
2019-02-12T02:54:36.429Z,102768.80
2019-02-12T02:55:41.181Z,102764.61
2019-02-12T02:56:46.096Z,102767.70
2019-02-12T02:57:51.026Z,102770.18
2019-02-12T02:58:56.539Z,102772.67
2019-02-12T03:00:01.539Z,102773.84
2019-02-12T03:01:06.474Z,102777.94
2019-02-12T03:02:11.113Z,102771.97
2019-02-12T03:03:16.388Z,102772.86
2019-02-12T03:04:21.874Z,102770.69
2019-02-12T03:05:27.450Z,102770.99
2019-02-12T03:06:32.812Z,102775.41
2019-02-12T03:07:37.812Z,102777.48
2019-02-12T03:08:43.145Z,102769.39
2019-02-12T03:09:48.317Z,102773.41
2019-02-12T03:10:52.989Z,102779.12
2019-02-12T03:11:57.802Z,102777.42
2019-02-12T03:13:03.249Z,102779.37
2019-02-12T03:14:08.380Z,102783.81
2019-02-12T03:15:13.078Z,102783.70
2019-02-12T03:16:17.996Z,102782.86
2019-02-12T03:17:23.205Z,102787.20
2019-02-12T03:18:28.169Z,102778.77
2019-02-12T03:19:33.371Z,102788.31
2019-02-12T03:20:38.591Z,102780.72
2019-02-12T03:21:43.549Z,102782.02
2019-02-12T03:22:48.926Z,102786.77
2019-02-12T03:23:53.364Z,102787.75
2019-02-12T03:24:58.270Z,102785.87
2019-02-12T03:26:03.390Z,102781.35
2019-02-12T03:27:08.923Z,102788.09
2019-02-12T03:28:13.863Z,102788.70
2019-02-12T03:29:19.149Z,102793.02
2019-02-12T03:30:24.309Z,102787.23
2019-02-12T03:31:29.286Z,102788.11
2019-02-12T03:32:34.021Z,102791.37
2019-02-12T03:33:39.229Z,102786.76
2019-02-12T03:34:44.289Z,102791.77
2019-02-12T03:35:49.652Z,102785.95
2019-02-12T03:36:55.170Z,102787.98
2019-02-12T03:38:00.509Z,102790.30
2019-02-12T03:39:05.607Z,102790.70
2019-02-12T03:40:10.986Z,102790.66
2019-02-12T03:41:16.221Z,102793.46
2019-02-12T03:42:21.536Z,102792.72
2019-02-12T03:43:26.502Z,102801.55
2019-02-12T03:44:31.552Z,102795.78
2019-02-12T03:45:36.569Z,102803.44
2019-02-12T03:46:41.548Z,102798.02
2019-02-12T03:47:46.830Z,102791.24
2019-02-12T03:48:52.027Z,102790.55
2019-02-12T03:49:57.282Z,102792.25
2019-02-12T03:51:02.211Z,102800.38
2019-02-12T03:52:12.810Z,102795.85
2019-02-12T03:53:14.150Z,102789.75
2019-02-12T03:54:19.326Z,102791.11
2019-02-12T03:55:24.599Z,102793.20
2019-02-12T03:56:30.130Z,102797.39
2019-02-12T03:57:35.386Z,102800.78
2019-02-12T03:58:40.338Z,102799.28
2019-02-12T03:59:45.373Z,102790.75
2019-02-12T04:00:50.729Z,102794.75
2019-02-12T04:01:55.484Z,102797.45
2019-02-12T04:03:07.741Z,102801.86
2019-02-12T04:04:13.088Z,102798.90
2019-02-12T04:05:17.741Z,102800.93
2019-02-12T04:06:23.054Z,102801.95
2019-02-12T04:07:28.302Z,102796.59
2019-02-12T04:08:33.451Z,102793.33
2019-02-12T04:09:38.615Z,102796.05
2019-02-12T04:10:43.505Z,102796.86
2019-02-12T04:11:48.629Z,102798.50
2019-02-12T04:12:53.486Z,102799.16
2019-02-12T04:13:59.106Z,102799.16
2019-02-12T04:15:04.055Z,102801.94
2019-02-12T04:16:09.132Z,102798.95
2019-02-12T04:17:14.384Z,102792.41
2019-02-12T04:18:19.607Z,102794.08
2019-02-12T04:19:24.737Z,102796.32
2019-02-12T04:20:29.691Z,102798.98
2019-02-12T04:21:34.674Z,102799.98
2019-02-12T04:22:39.824Z,102803.02
2019-02-12T04:23:45.087Z,102801.94
2019-02-12T04:24:50.317Z,102797.82
2019-02-12T04:25:55.780Z,102794.55
2019-02-12T04:27:00.919Z,102804.99
2019-02-12T04:28:06.081Z,102805.86
2019-02-12T04:29:11.601Z,102804.17
2019-02-12T04:30:16.548Z,102806.09
2019-02-12T04:31:22.077Z,102812.43
2019-02-12T04:32:27.582Z,102811.58
2019-02-12T04:33:32.756Z,102818.73
2019-02-12T04:34:37.957Z,102813.59
2019-02-12T04:35:43.317Z,102819.61
2019-02-12T04:36:48.551Z,102818.53
2019-02-12T04:37:53.941Z,102815.64
2019-02-12T04:38:59.400Z,102815.29
2019-02-12T04:40:04.124Z,102821.25
2019-02-12T04:41:09.332Z,102817.39
2019-02-12T04:42:14.579Z,102809.32
2019-02-12T04:43:19.188Z,102817.73
2019-02-12T04:44:24.723Z,102821.39
2019-02-12T04:45:29.413Z,102821.62
2019-02-12T04:46:34.625Z,102819.98
2019-02-12T04:47:39.685Z,102821.60
2019-02-12T04:48:44.181Z,102815.97
2019-02-12T04:49:49.167Z,102816.16
2019-02-12T04:50:54.189Z,102803.57
2019-02-12T04:51:59.182Z,102806.48
2019-02-12T04:53:04.134Z,102806.35
2019-02-12T04:54:09.045Z,102803.10
2019-02-12T04:55:13.669Z,102804.45
2019-02-12T04:56:18.847Z,102808.30
2019-02-12T04:57:23.529Z,102810.48
2019-02-12T04:58:28.509Z,102798.55
2019-02-12T04:59:33.182Z,102807.38
2019-02-12T05:00:38.934Z,102802.97
2019-02-12T05:01:44.089Z,102807.38
2019-02-12T05:02:49.335Z,102810.69
2019-02-12T05:03:54.595Z,102810.36
2019-02-12T05:04:59.501Z,102806.89
2019-02-12T05:06:04.186Z,102805.84
2019-02-12T05:07:09.274Z,102806.76
2019-02-12T05:08:14.238Z,102807.48
2019-02-12T05:09:20.689Z,102813.13
2019-02-12T05:10:26.125Z,102811.62
2019-02-12T05:11:31.203Z,102820.16
2019-02-12T05:12:35.836Z,102815.36
2019-02-12T05:13:40.988Z,102814.55
2019-02-12T05:14:46.043Z,102818.01
2019-02-12T05:15:51.280Z,102821.88
2019-02-12T05:16:56.498Z,102814.88
2019-02-12T05:18:01.374Z,102815.03
2019-02-12T05:19:06.849Z,102825.41
2019-02-12T05:20:13.002Z,102824.65
2019-02-12T05:21:17.678Z,102823.83
2019-02-12T05:22:23.688Z,102823.52
2019-02-12T05:23:28.943Z,102816.92
2019-02-12T05:24:34.099Z,102818.16
2019-02-12T05:25:39.669Z,102825.39
2019-02-12T05:26:44.928Z,102827.08
2019-02-12T05:27:50.186Z,102829.27
2019-02-12T05:28:55.707Z,102831.56
2019-02-12T05:30:00.855Z,102838.07
2019-02-12T05:31:05.538Z,102831.92
2019-02-12T05:32:09.907Z,102834.30
2019-02-12T05:33:15.138Z,102831.64
2019-02-12T05:34:19.646Z,102829.11
2019-02-12T05:35:24.901Z,102834.34
2019-02-12T05:36:30.418Z,102838.24
2019-02-12T05:37:35.803Z,102832.00
2019-02-12T05:38:41.106Z,102830.03
2019-02-12T05:39:46.194Z,102830.59
2019-02-12T05:40:51.320Z,102833.29
2019-02-12T05:41:56.571Z,102828.42
2019-02-12T05:43:01.824Z,102831.64
2019-02-12T05:44:06.490Z,102834.63
2019-02-12T05:45:12.028Z,102836.63
2019-02-12T05:46:17.006Z,102833.50
2019-02-12T05:47:21.972Z,102839.28
2019-02-12T05:48:26.830Z,102827.34
2019-02-12T05:49:32.073Z,102835.63
2019-02-12T05:50:37.345Z,102835.70
2019-02-12T05:51:42.384Z,102833.82
2019-02-12T05:52:54.285Z,102842.23
2019-02-12T05:53:54.872Z,102839.64
2019-02-12T05:55:00.021Z,102842.42
2019-02-12T05:56:05.208Z,102838.32
2019-02-12T05:57:09.639Z,102833.53
2019-02-12T05:58:14.728Z,102834.22
2019-02-12T05:59:19.673Z,102837.44
2019-02-12T06:00:27.051Z,102837.92
2019-02-12T06:01:31.786Z,102829.63
2019-02-12T06:02:37.337Z,102827.70
2019-02-12T06:03:42.851Z,102828.34
2019-02-12T06:04:47.999Z,102830.03
2019-02-12T06:05:53.082Z,102830.23
2019-02-12T06:06:58.014Z,102829.91
2019-02-12T06:08:02.874Z,102823.03
2019-02-12T06:09:07.917Z,102823.80
2019-02-12T06:10:13.153Z,102830.17
2019-02-12T06:11:18.356Z,102832.59
2019-02-12T06:12:23.594Z,102833.92
2019-02-12T06:13:28.525Z,102831.04
2019-02-12T06:14:33.247Z,102828.09
2019-02-12T06:15:38.442Z,102834.55
2019-02-12T06:16:45.743Z,102832.94
2019-02-12T06:17:51.181Z,102826.86
2019-02-12T06:18:56.128Z,102834.34
2019-02-12T06:20:01.405Z,102834.05
2019-02-12T06:21:06.334Z,102826.89
2019-02-12T06:22:11.924Z,102832.00
2019-02-12T06:23:16.878Z,102829.38
2019-02-12T06:24:22.202Z,102829.83
2019-02-12T06:25:27.633Z,102828.07
2019-02-12T06:26:33.086Z,102826.30
2019-02-12T06:27:38.016Z,102822.11
2019-02-12T06:28:42.952Z,102824.56
2019-02-12T06:29:48.117Z,102828.83
2019-02-12T06:30:53.354Z,102830.44
2019-02-12T06:31:58.440Z,102823.88
2019-02-12T06:33:07.702Z,102830.64
2019-02-12T06:34:10.444Z,102827.34
2019-02-12T06:35:16.717Z,102830.67
2019-02-12T06:36:21.947Z,102833.94
2019-02-12T06:37:27.210Z,102830.88
2019-02-12T06:38:32.539Z,102829.43
2019-02-12T06:39:37.786Z,102834.64
2019-02-12T06:40:43.159Z,102839.77
2019-02-12T06:41:47.587Z,102826.17
2019-02-12T06:42:52.181Z,102830.09
2019-02-12T06:43:57.131Z,102830.98
2019-02-12T06:45:02.127Z,102830.37
2019-02-12T06:46:07.104Z,102829.55
2019-02-12T06:47:12.077Z,102827.31
2019-02-12T06:48:16.692Z,102824.75
2019-02-12T06:49:21.375Z,102834.52
2019-02-12T06:50:26.336Z,102833.21
2019-02-12T06:51:31.591Z,102836.90
2019-02-12T06:52:36.576Z,102840.08
2019-02-12T06:53:41.642Z,102837.76
2019-02-12T06:54:46.724Z,102838.47
2019-02-12T06:55:51.782Z,102844.73
2019-02-12T06:56:57.304Z,102847.59
2019-02-12T06:58:02.275Z,102846.48
2019-02-12T06:59:07.832Z,102847.98
2019-02-12T07:00:12.786Z,102849.28
2019-02-12T07:01:18.370Z,102849.39
2019-02-12T07:02:58.924Z,102858.05
2019-02-12T07:04:13.615Z,102845.30
2019-02-12T07:05:18.790Z,102862.05
2019-02-12T07:06:38.482Z,102866.97
2019-02-12T07:08:09.855Z,102863.98
2019-02-12T07:09:25.376Z,102869.62
2019-02-12T07:10:35.516Z,102866.11
2019-02-12T07:12:29.332Z,102876.62
2019-02-12T07:13:39.446Z,102865.91
2019-02-12T07:15:12.042Z,102869.00
2019-02-12T07:16:53.395Z,102877.87
2019-02-12T07:18:33.966Z,102885.33
2019-02-12T07:19:52.884Z,102889.11
2019-02-12T07:21:53.784Z,102888.17
2019-02-12T07:23:21.712Z,102893.82
2019-02-12T07:24:58.264Z,102892.94
2019-02-12T07:26:41.570Z,102898.94
2019-02-12T07:28:11.555Z,102903.42
2019-02-12T07:29:49.342Z,102900.65
2019-02-12T07:31:41.028Z,102904.02
2019-02-12T07:33:03.359Z,102904.53
2019-02-12T07:34:48.175Z,102915.09
2019-02-12T07:36:53.127Z,102922.45
2019-02-12T07:38:37.059Z,102922.89
2019-02-12T07:40:23.984Z,102932.97
2019-02-12T07:41:40.202Z,102931.92
2019-02-12T07:42:57.653Z,102926.50
2019-02-12T07:44:16.510Z,102935.73
2019-02-12T07:45:56.916Z,102924.45
2019-02-12T07:47:36.619Z,102936.83
2019-02-12T07:48:56.592Z,102926.77
2019-02-12T07:50:54.274Z,102931.86
2019-02-12T07:52:20.058Z,102942.01
2019-02-12T07:54:08.990Z,102955.97
2019-02-12T07:55:51.507Z,102955.75
2019-02-12T07:57:17.605Z,102955.29
2019-02-12T07:58:56.198Z,102962.81
2019-02-12T08:00:33.693Z,102968.66
2019-02-12T08:02:13.039Z,102971.30
2019-02-12T08:03:46.483Z,102966.21
2019-02-12T08:05:27.515Z,102971.16
2019-02-12T08:07:05.819Z,102974.07
2019-02-12T08:08:23.215Z,102970.39
2019-02-12T08:10:02.208Z,102977.50
2019-02-12T08:11:28.438Z,102976.09
2019-02-12T08:12:48.386Z,102972.84
2019-02-12T08:14:02.954Z,102978.44
2019-02-12T08:15:23.261Z,102981.41
2019-02-12T08:17:08.949Z,102979.27
2019-02-12T08:18:45.358Z,102984.00
2019-02-12T08:20:33.245Z,102984.45
2019-02-12T08:22:10.711Z,102996.26
2019-02-12T08:23:42.797Z,103000.50
2019-02-12T08:25:08.638Z,102998.08
2019-02-12T08:26:57.860Z,102987.71
2019-02-12T08:28:27.579Z,102988.56
2019-02-12T08:30:31.015Z,102985.48
2019-02-12T08:31:57.401Z,102987.77
2019-02-12T08:33:58.002Z,102989.22
2019-02-12T08:35:38.476Z,102992.61
2019-02-12T08:37:05.512Z,102989.89
2019-02-12T08:38:33.777Z,102993.58
2019-02-12T08:39:56.758Z,102994.66
2019-02-12T08:41:48.158Z,102991.80
2019-02-12T08:43:14.770Z,102993.25
2019-02-12T08:44:59.533Z,102997.84
2019-02-12T08:47:02.996Z,102989.93
2019-02-12T08:48:50.935Z,102996.64
2019-02-12T08:50:15.666Z,102996.80
2019-02-12T08:52:00.183Z,103001.50
2019-02-12T08:53:36.454Z,103004.52
2019-02-12T08:55:24.664Z,103007.03
2019-02-12T08:56:42.524Z,103008.09
2019-02-12T08:58:11.584Z,102997.28
2019-02-12T08:59:39.649Z,103003.27
2019-02-12T09:01:28.309Z,103000.25
2019-02-12T09:03:14.083Z,103007.22
2019-02-12T09:04:53.212Z,103002.57
2019-02-12T09:06:21.082Z,103008.57
2019-02-12T09:07:39.588Z,103016.48
2019-02-12T09:09:30.240Z,103012.93
2019-02-12T09:10:56.668Z,103021.02
2019-02-12T09:12:45.371Z,103016.49
2019-02-12T09:14:01.294Z,103018.16
2019-02-12T09:15:21.790Z,103015.26
2019-02-12T09:17:12.763Z,103017.38
2019-02-12T09:19:01.391Z,103019.14
2019-02-12T09:20:46.595Z,103017.55
2019-02-12T09:22:18.706Z,103021.03
2019-02-12T09:24:15.872Z,103029.84
2019-02-12T09:25:41.348Z,103026.11
2019-02-12T09:27:33.462Z,103030.69
2019-02-12T09:29:07.686Z,103033.53
2019-02-12T09:30:55.033Z,103038.38
2019-02-12T09:32:55.961Z,103037.57
2019-02-12T09:34:46.881Z,103035.12
2019-02-12T09:36:20.835Z,103042.88
2019-02-12T09:37:45.460Z,103041.83
2019-02-12T09:39:26.685Z,103040.56
2019-02-12T09:41:14.403Z,103034.31
2019-02-12T09:42:54.234Z,103040.13
2019-02-12T09:44:39.491Z,103042.38
2019-02-12T09:46:07.288Z,103046.48
2019-02-12T09:47:48.134Z,103039.95
2019-02-12T09:49:13.602Z,103042.44
2019-02-12T09:51:11.305Z,103039.34
2019-02-12T09:52:43.069Z,103039.52
2019-02-12T09:54:08.473Z,103035.61
2019-02-12T09:55:27.347Z,103043.27
2019-02-12T09:57:22.573Z,103046.02
2019-02-12T09:59:04.667Z,103048.06
2019-02-12T10:00:38.718Z,103044.58
2019-02-12T10:02:28.154Z,103051.03
2019-02-12T10:04:10.020Z,103046.87
2019-02-12T10:05:33.399Z,103051.69
2019-02-12T10:07:01.698Z,103051.82
2019-02-12T10:09:02.608Z,103046.77
2019-02-12T10:10:36.987Z,103048.53
2019-02-12T10:12:09.117Z,103053.20
2019-02-12T10:13:38.965Z,103045.73
2019-02-12T10:15:10.774Z,103053.15
2019-02-12T10:16:26.045Z,103053.64
2019-02-12T10:18:03.916Z,103057.00
2019-02-12T10:19:23.826Z,103060.36
2019-02-12T10:20:56.102Z,103058.06
2019-02-12T10:22:19.847Z,103062.19
2019-02-12T10:23:50.699Z,103062.22
2019-02-12T10:25:20.695Z,103053.74
2019-02-12T10:26:25.505Z,103059.12
2019-02-12T10:28:02.420Z,103054.40
2019-02-12T10:29:27.488Z,103054.55
2019-02-12T10:30:55.664Z,103051.06
2019-02-12T10:32:08.263Z,103055.89
2019-02-12T10:33:05.815Z,103054.41
2019-02-12T10:34:10.717Z,103055.66
2019-02-12T10:35:16.030Z,103055.05
2019-02-12T10:36:21.301Z,103052.20
2019-02-12T10:37:26.248Z,103054.77
2019-02-12T10:38:31.795Z,103056.53
2019-02-12T10:39:36.482Z,103060.50
2019-02-12T10:40:41.795Z,103055.20
2019-02-12T10:41:47.065Z,103058.22
2019-02-12T10:42:52.628Z,103052.90
2019-02-12T10:43:57.861Z,103049.23
2019-02-12T10:45:03.107Z,103051.91
2019-02-12T10:46:08.371Z,103051.33
2019-02-12T10:47:13.332Z,103050.98
2019-02-12T10:48:18.304Z,103054.83
2019-02-12T10:49:23.795Z,103043.00
2019-02-12T10:50:29.027Z,103048.83
2019-02-12T10:51:33.960Z,103049.72
2019-02-12T10:52:39.569Z,103051.13
2019-02-12T10:53:44.575Z,103048.25
2019-02-12T10:54:48.996Z,103043.31
2019-02-12T10:55:54.265Z,103052.56
2019-02-12T10:56:59.796Z,103050.88
2019-02-12T10:58:04.229Z,103061.15
2019-02-12T10:59:08.661Z,103059.09
2019-02-12T11:00:14.474Z,103062.34
2019-02-12T11:01:19.143Z,103058.52
2019-02-12T11:02:24.375Z,103059.80
2019-02-12T11:03:29.678Z,103061.53
2019-02-12T11:04:34.694Z,103056.40
2019-02-12T11:05:39.717Z,103055.02
2019-02-12T11:06:45.323Z,103051.64
2019-02-12T11:07:50.552Z,103056.97
2019-02-12T11:08:55.868Z,103051.61
2019-02-12T11:10:01.401Z,103052.63
2019-02-12T11:11:06.357Z,103050.78
2019-02-12T11:12:11.222Z,103051.00
2019-02-12T11:13:16.883Z,103046.77
2019-02-12T11:14:21.919Z,103042.83
2019-02-12T11:15:26.737Z,103047.95
2019-02-12T11:16:32.315Z,103052.97
2019-02-12T11:17:37.234Z,103053.20
2019-02-12T11:18:42.183Z,103047.08
2019-02-12T11:19:47.139Z,103048.71
2019-02-12T11:20:52.699Z,103046.83
2019-02-12T11:21:57.923Z,103046.07
2019-02-12T11:23:03.139Z,103046.95
2019-02-12T11:24:08.581Z,103044.70
2019-02-12T11:25:14.081Z,103041.11
2019-02-12T11:26:19.321Z,103039.52
2019-02-12T11:27:24.794Z,103037.13
2019-02-12T11:28:29.452Z,103039.88
2019-02-12T11:29:34.398Z,103039.91
2019-02-12T11:30:39.536Z,103035.00
2019-02-12T11:31:47.322Z,103034.63
2019-02-12T11:32:52.892Z,103034.52
2019-02-12T11:33:57.958Z,103035.69
2019-02-12T11:35:02.834Z,103030.39
2019-02-12T11:36:07.974Z,103032.09
2019-02-12T11:37:12.964Z,103032.75
2019-02-12T11:38:18.216Z,103037.23
2019-02-12T11:39:22.895Z,103037.27
2019-02-12T11:40:28.148Z,103037.09
2019-02-12T11:41:33.349Z,103036.63
2019-02-12T11:42:38.861Z,103029.09
2019-02-12T11:43:44.412Z,103030.79
2019-02-12T11:44:49.669Z,103029.98
2019-02-12T11:45:54.722Z,103028.62
2019-02-12T11:46:59.648Z,103027.80
2019-02-12T11:48:04.611Z,103031.51
2019-02-12T11:49:09.846Z,103034.75
2019-02-12T11:50:15.086Z,103029.92
2019-02-12T11:51:20.340Z,103040.16
2019-02-12T11:52:25.458Z,103033.27
2019-02-12T11:53:30.296Z,103032.45
2019-02-12T11:54:43.430Z,103027.03
2019-02-12T11:55:42.778Z,103034.08
2019-02-12T11:56:48.005Z,103038.83
2019-02-12T11:57:53.142Z,103037.71
2019-02-12T11:58:58.386Z,103032.70
2019-02-12T12:00:03.112Z,103033.73
2019-02-12T12:01:10.436Z,103033.49
2019-02-12T12:02:15.569Z,103030.62
2019-02-12T12:03:20.489Z,103035.15
2019-02-12T12:04:25.720Z,103026.66
2019-02-12T12:05:30.325Z,103037.53
2019-02-12T12:06:35.571Z,103032.97
2019-02-12T12:07:40.694Z,103040.98
2019-02-12T12:08:45.611Z,103034.52
2019-02-12T12:09:50.852Z,103031.31
2019-02-12T12:10:55.827Z,103030.97
2019-02-12T12:12:00.433Z,103035.45
2019-02-12T12:13:05.134Z,103025.42
2019-02-12T12:14:10.189Z,103031.69
2019-02-12T12:15:14.966Z,103031.51
2019-02-12T12:16:19.920Z,103021.40
2019-02-12T12:17:24.839Z,103023.92
2019-02-12T12:18:30.098Z,103029.05
2019-02-12T12:19:34.957Z,103020.23
2019-02-12T12:20:40.439Z,103023.03
2019-02-12T12:21:45.809Z,103027.34
2019-02-12T12:22:51.346Z,103027.93
2019-02-12T12:23:56.597Z,103023.20
2019-02-12T12:25:01.285Z,103026.67
2019-02-12T12:26:06.553Z,103034.45
2019-02-12T12:27:11.792Z,103027.95
2019-02-12T12:28:16.466Z,103032.28
2019-02-12T12:29:21.420Z,103029.03
2019-02-12T12:30:26.103Z,103032.09
2019-02-12T12:31:31.385Z,103025.67
2019-02-12T12:32:36.597Z,103019.19
2019-02-12T12:33:41.590Z,103028.50
2019-02-12T12:34:46.609Z,103025.78
2019-02-12T12:35:51.041Z,103025.90
2019-02-12T12:36:55.914Z,103024.36
2019-02-12T12:38:01.178Z,103022.72
2019-02-12T12:39:06.907Z,103021.42
2019-02-12T12:40:11.862Z,103030.13
2019-02-12T12:41:17.014Z,103026.43
2019-02-12T12:42:23.154Z,103022.84
2019-02-12T12:43:29.779Z,103031.78
2019-02-12T12:44:34.646Z,103026.95
2019-02-12T12:45:39.919Z,103018.41
2019-02-12T12:46:45.518Z,103020.68
2019-02-12T12:47:50.483Z,103018.31
2019-02-12T12:48:55.697Z,103021.18
2019-02-12T12:50:00.660Z,103013.23
2019-02-12T12:51:05.470Z,103012.16
2019-02-12T12:52:10.400Z,103010.27
2019-02-12T12:53:15.296Z,103010.75
2019-02-12T12:54:20.210Z,103010.48
2019-02-12T12:55:25.506Z,103016.88
2019-02-12T12:56:30.094Z,103013.73
2019-02-12T12:57:41.651Z,103012.31
2019-02-12T12:58:41.781Z,103007.55
2019-02-12T12:59:46.680Z,103009.64
2019-02-12T13:00:52.167Z,103009.33
2019-02-12T13:01:57.332Z,103009.05
2019-02-12T13:03:01.952Z,103012.57
2019-02-12T13:04:06.991Z,103009.35
2019-02-12T13:05:11.976Z,103007.79
2019-02-12T13:06:16.909Z,103003.21
2019-02-12T13:07:21.755Z,103003.25
2019-02-12T13:08:26.705Z,103002.69
2019-02-12T13:09:31.636Z,103007.03
2019-02-12T13:10:36.828Z,103004.53
2019-02-12T13:11:42.451Z,103002.25
2019-02-12T13:12:47.674Z,102996.70
2019-02-12T13:13:52.687Z,102998.77
2019-02-12T13:14:57.711Z,102998.63
2019-02-12T13:16:03.015Z,102993.70
2019-02-12T13:17:08.417Z,102992.13
2019-02-12T13:18:13.394Z,102994.30
2019-02-12T13:19:17.967Z,102994.92
2019-02-12T13:20:23.479Z,102996.73
2019-02-12T13:21:28.731Z,102994.94
2019-02-12T13:22:34.385Z,102994.95
2019-02-12T13:23:39.370Z,103000.36
2019-02-12T13:24:45.789Z,102999.88
2019-02-12T13:25:51.232Z,102995.42
2019-02-12T13:26:56.473Z,103002.44
2019-02-12T13:28:01.322Z,103003.67
2019-02-12T13:29:06.549Z,102998.52
2019-02-12T13:30:14.186Z,103008.44